createdAt,value
2022-09-28T00:00:56.091Z,13.57
2022-09-28T00:01:56.132Z,13.60
2022-09-28T00:02:56.080Z,13.63
2022-09-28T00:03:55.993Z,13.71
2022-09-28T00:04:55.981Z,13.67
2022-09-28T00:05:55.976Z,13.67
2022-09-28T00:06:56.263Z,13.67
2022-09-28T00:07:55.981Z,13.68
2022-09-28T00:08:55.943Z,13.71
2022-09-28T00:09:55.926Z,13.70
2022-09-28T00:10:55.936Z,13.67
2022-09-28T00:11:55.904Z,13.71
2022-09-28T00:12:55.913Z,13.68
2022-09-28T00:13:55.888Z,13.74
2022-09-28T00:14:55.876Z,13.68
2022-09-28T00:15:55.903Z,13.74
2022-09-28T00:16:55.851Z,13.65
2022-09-28T00:17:55.838Z,13.72
2022-09-28T00:18:55.845Z,13.68
2022-09-28T00:19:55.821Z,13.67
2022-09-28T00:20:55.802Z,13.63
2022-09-28T00:21:55.797Z,13.65
2022-09-28T00:22:55.780Z,13.72
2022-09-28T00:23:55.825Z,13.60
2022-09-28T00:24:55.777Z,13.60
2022-09-28T00:25:55.749Z,13.60
2022-09-28T00:26:55.740Z,13.62
2022-09-28T00:27:55.724Z,13.63
2022-09-28T00:28:55.727Z,13.56
2022-09-28T00:29:55.709Z,13.60
2022-09-28T00:30:55.726Z,13.57
2022-09-28T00:31:56.259Z,13.56
2022-09-28T00:32:55.672Z,13.59
2022-09-28T00:33:55.665Z,13.59
2022-09-28T00:34:55.652Z,13.59
2022-09-28T00:35:55.633Z,13.50
2022-09-28T00:36:55.677Z,13.56
2022-09-28T00:37:55.614Z,13.52
2022-09-28T00:38:55.607Z,13.41
2022-09-28T00:39:55.617Z,13.50
2022-09-28T00:40:55.668Z,13.46
2022-09-28T00:41:55.572Z,13.44
2022-09-28T00:42:55.598Z,13.46
2022-09-28T00:43:55.546Z,13.46
2022-09-28T00:44:55.538Z,13.41
2022-09-28T00:45:55.602Z,13.47
2022-09-28T00:46:55.536Z,13.37
2022-09-28T00:47:55.517Z,13.33
2022-09-28T00:48:55.539Z,13.33
2022-09-28T00:49:55.491Z,13.41
2022-09-28T00:50:55.509Z,13.39
2022-09-28T00:51:55.458Z,13.38
2022-09-28T00:52:55.459Z,13.44
2022-09-28T00:53:55.441Z,13.44
2022-09-28T00:54:55.496Z,13.46
2022-09-28T00:55:55.434Z,13.47
2022-09-28T00:56:55.406Z,13.44
2022-09-28T00:57:55.390Z,13.41
2022-09-28T00:58:55.385Z,13.44
2022-09-28T00:59:55.371Z,13.53
2022-09-28T01:00:55.463Z,13.42
2022-09-28T01:01:55.391Z,13.44
2022-09-28T01:02:55.332Z,13.47
2022-09-28T01:03:55.336Z,13.46
2022-09-28T01:04:55.315Z,13.44
2022-09-28T01:05:55.300Z,13.41
2022-09-28T01:06:55.345Z,13.49
2022-09-28T01:07:55.337Z,13.38
2022-09-28T01:08:55.262Z,13.44
2022-09-28T01:09:55.254Z,13.41
2022-09-28T01:10:55.271Z,13.42
2022-09-28T01:11:55.255Z,13.50
2022-09-28T01:12:55.237Z,13.42
2022-09-28T01:13:55.204Z,13.50
2022-09-28T01:14:55.192Z,13.42
2022-09-28T01:15:55.234Z,13.53
2022-09-28T01:16:55.209Z,13.52
2022-09-28T01:17:55.164Z,13.50
2022-09-28T01:18:55.192Z,13.52
2022-09-28T01:19:55.136Z,13.47
2022-09-28T01:20:55.129Z,13.41
2022-09-28T01:21:55.198Z,13.50
2022-09-28T01:22:55.107Z,13.47
2022-09-28T01:23:55.097Z,13.46
2022-09-28T01:24:55.105Z,13.42
2022-09-28T01:25:55.075Z,13.50
2022-09-28T01:26:55.146Z,13.41
2022-09-28T01:27:55.074Z,13.49
2022-09-28T01:28:55.056Z,13.47
2022-09-28T01:29:55.028Z,13.46
2022-09-28T01:30:55.080Z,13.46
2022-09-28T01:31:55.035Z,13.44
2022-09-28T01:32:55.009Z,13.46
2022-09-28T01:33:54.992Z,13.46
2022-09-28T01:34:55.073Z,13.47
2022-09-28T01:35:54.961Z,13.42
2022-09-28T01:36:55.007Z,13.49
2022-09-28T01:37:54.938Z,13.47
2022-09-28T01:38:54.957Z,13.41
2022-09-28T01:39:54.922Z,13.49
2022-09-28T01:40:55.033Z,13.39
2022-09-28T01:41:54.898Z,13.47
2022-09-28T01:42:54.949Z,13.44
2022-09-28T01:43:54.900Z,13.39
2022-09-28T01:44:54.896Z,13.33
2022-09-28T01:45:54.948Z,13.44
2022-09-28T01:46:54.843Z,13.39
2022-09-28T01:47:54.854Z,13.37
2022-09-28T01:48:54.835Z,13.35
2022-09-28T01:49:54.808Z,13.31
2022-09-28T01:50:54.793Z,13.37
2022-09-28T01:51:54.792Z,13.33
2022-09-28T01:52:54.808Z,13.44
2022-09-28T01:53:54.763Z,13.41
2022-09-28T01:54:54.803Z,13.42
2022-09-28T01:55:54.736Z,13.38
2022-09-28T01:56:54.748Z,13.33
2022-09-28T01:57:54.716Z,13.37
2022-09-28T01:58:54.710Z,13.39
2022-09-28T01:59:54.721Z,13.31
2022-09-28T02:00:54.827Z,13.41
2022-09-28T02:01:54.719Z,13.41
2022-09-28T02:02:54.660Z,13.30
2022-09-28T02:03:54.652Z,13.39
2022-09-28T02:04:54.639Z,13.37
2022-09-28T02:05:54.629Z,13.41
2022-09-28T02:06:54.642Z,13.44
2022-09-28T02:07:54.624Z,13.30
2022-09-28T02:08:54.588Z,13.44
2022-09-28T02:09:54.583Z,13.41
2022-09-28T02:10:54.579Z,13.44
2022-09-28T02:11:54.559Z,13.33
2022-09-28T02:12:54.584Z,13.38
2022-09-28T02:13:54.535Z,13.38
2022-09-28T02:14:54.543Z,13.33
2022-09-28T02:15:54.659Z,13.41
2022-09-28T02:16:54.504Z,13.38
2022-09-28T02:17:54.496Z,13.39
2022-09-28T02:18:54.523Z,13.39
2022-09-28T02:19:54.464Z,13.33
2022-09-28T02:20:54.525Z,13.31
2022-09-28T02:21:54.444Z,13.44
2022-09-28T02:22:54.440Z,13.28
2022-09-28T02:23:54.424Z,13.27
2022-09-28T02:24:54.448Z,13.27
2022-09-28T02:25:54.400Z,13.25
2022-09-28T02:26:54.415Z,13.37
2022-09-28T02:27:54.375Z,13.38
2022-09-28T02:28:54.398Z,13.30
2022-09-28T02:29:54.361Z,13.28
2022-09-28T02:30:54.375Z,13.30
2022-09-28T02:31:54.477Z,13.31
2022-09-28T02:32:54.324Z,13.33
2022-09-28T02:33:54.338Z,13.19
2022-09-28T02:34:54.303Z,13.13
2022-09-28T02:35:54.290Z,13.20
2022-09-28T02:36:54.317Z,13.23
2022-09-28T02:37:54.277Z,13.19
2022-09-28T02:38:54.258Z,13.12
2022-09-28T02:39:54.252Z,13.16
2022-09-28T02:40:54.281Z,13.11
2022-09-28T02:41:54.219Z,13.09
2022-09-28T02:42:54.238Z,13.05
2022-09-28T02:43:54.200Z,13.08
2022-09-28T02:44:54.189Z,13.09
2022-09-28T02:45:54.242Z,13.04
2022-09-28T02:46:54.168Z,13.01
2022-09-28T02:47:54.176Z,12.98
2022-09-28T02:49:10.389Z,13.01
2022-09-28T02:49:55.134Z,12.97
2022-09-28T02:50:54.120Z,13.01
2022-09-28T02:51:54.111Z,13.01
2022-09-28T02:52:54.099Z,12.94
2022-09-28T02:53:54.192Z,12.93
2022-09-28T02:54:54.097Z,12.94
2022-09-28T02:55:54.066Z,12.87
2022-09-28T02:56:54.074Z,12.87
2022-09-28T02:57:54.067Z,12.91
2022-09-28T02:58:54.028Z,12.80
2022-09-28T02:59:54.012Z,12.83
2022-09-28T03:00:54.095Z,12.79
2022-09-28T03:01:54.176Z,12.76
2022-09-28T03:02:53.986Z,12.78
2022-09-28T03:03:54.006Z,12.79
2022-09-28T03:04:53.962Z,12.82
2022-09-28T03:05:53.958Z,12.83
2022-09-28T03:06:53.997Z,12.86
2022-09-28T03:07:53.932Z,12.83
2022-09-28T03:08:53.911Z,12.72
2022-09-28T03:09:53.903Z,12.86
2022-09-28T03:10:53.896Z,12.83
2022-09-28T03:11:53.880Z,12.85
2022-09-28T03:12:53.885Z,12.76
2022-09-28T03:13:53.851Z,12.83
2022-09-28T03:14:53.839Z,12.83
2022-09-28T03:15:53.906Z,12.76
2022-09-28T03:16:53.824Z,12.79
2022-09-28T03:17:53.816Z,12.93
2022-09-28T03:18:53.813Z,12.90
2022-09-28T03:20:00.803Z,12.79
2022-09-28T03:21:01.319Z,12.85
2022-09-28T03:22:00.765Z,12.82
2022-09-28T03:23:23.420Z,12.75
2022-09-28T03:24:01.462Z,12.68
2022-09-28T03:24:53.728Z,12.57
2022-09-28T03:25:53.724Z,12.58
2022-09-28T03:26:53.711Z,12.58
2022-09-28T03:27:53.702Z,12.65
2022-09-28T03:28:53.695Z,12.60
2022-09-28T03:29:53.738Z,12.60
2022-09-28T03:30:53.671Z,12.67
2022-09-28T03:31:53.691Z,12.68
2022-09-28T03:32:53.644Z,12.70
2022-09-28T03:33:53.631Z,12.75
2022-09-28T03:34:53.647Z,12.75
2022-09-28T03:35:53.653Z,12.73
2022-09-28T03:36:53.625Z,12.73
2022-09-28T03:37:53.592Z,12.76
2022-09-28T03:38:53.579Z,12.76
2022-09-28T03:39:53.585Z,12.75
2022-09-28T03:40:53.669Z,12.85
2022-09-28T03:41:53.557Z,12.75
2022-09-28T03:42:53.528Z,12.76
2022-09-28T03:43:53.523Z,12.82
2022-09-28T03:44:53.541Z,12.83
2022-09-28T03:45:53.548Z,12.78
2022-09-28T03:46:53.489Z,12.78
2022-09-28T03:47:53.486Z,12.75
2022-09-28T03:48:53.467Z,12.83
2022-09-28T03:49:53.455Z,12.87
2022-09-28T03:50:53.443Z,12.83
2022-09-28T03:51:53.457Z,12.82
2022-09-28T03:52:53.418Z,12.83
2022-09-28T03:53:53.439Z,12.78
2022-09-28T03:54:53.401Z,12.83
2022-09-28T03:55:53.386Z,12.75
2022-09-28T03:56:53.378Z,12.80
2022-09-28T03:57:53.361Z,12.87
2022-09-28T03:58:53.354Z,12.85
2022-09-28T03:59:53.363Z,12.79
2022-09-28T04:00:53.347Z,12.68
2022-09-28T04:01:53.518Z,12.82
2022-09-28T04:02:53.305Z,12.85
2022-09-28T04:03:53.297Z,12.72
2022-09-28T04:04:53.278Z,12.76
2022-09-28T04:05:53.304Z,12.72
2022-09-28T04:06:53.418Z,12.72
2022-09-28T04:07:53.276Z,12.73
2022-09-28T04:08:53.240Z,12.62
2022-09-28T04:09:53.227Z,12.64
2022-09-28T04:10:53.244Z,12.64
2022-09-28T04:12:54.193Z,12.55
2022-09-28T04:13:53.195Z,12.55
2022-09-28T04:14:53.173Z,12.60
2022-09-28T04:15:53.162Z,12.60
2022-09-28T04:16:53.182Z,12.61
2022-09-28T04:17:53.227Z,12.61
2022-09-28T04:18:53.129Z,12.60
2022-09-28T04:19:53.119Z,12.57
2022-09-28T04:20:53.101Z,12.55
2022-09-28T04:21:53.092Z,12.58
2022-09-28T04:22:53.076Z,12.55
2022-09-28T04:23:53.111Z,12.55
2022-09-28T04:24:53.130Z,12.53
2022-09-28T04:25:53.040Z,12.54
2022-09-28T04:26:53.037Z,12.53
2022-09-28T04:27:53.019Z,12.50
2022-09-28T04:28:53.021Z,12.60
2022-09-28T04:29:53.016Z,12.54
2022-09-28T04:30:53.010Z,12.53
2022-09-28T04:31:53.079Z,12.47
2022-09-28T04:32:52.970Z,12.46
2022-09-28T04:33:52.953Z,12.45
2022-09-28T04:34:52.940Z,12.49
2022-09-28T04:35:52.977Z,12.46
2022-09-28T04:36:52.917Z,12.42
2022-09-28T04:37:52.910Z,12.45
2022-09-28T04:38:53.709Z,12.45
2022-09-28T04:39:52.907Z,12.39
2022-09-28T04:40:52.940Z,12.47
2022-09-28T04:41:53.041Z,12.37
2022-09-28T04:42:52.849Z,12.37
2022-09-28T04:43:52.838Z,12.37
2022-09-28T04:44:52.828Z,12.45
2022-09-28T04:45:52.846Z,12.43
2022-09-28T04:46:52.803Z,12.37
2022-09-28T04:47:52.867Z,12.29
2022-09-28T04:48:52.783Z,12.35
2022-09-28T04:49:52.771Z,12.31
2022-09-28T04:50:52.765Z,12.32
2022-09-28T04:51:52.775Z,12.25
2022-09-28T04:52:52.738Z,12.27
2022-09-28T04:53:52.823Z,12.31
2022-09-28T04:54:52.720Z,12.28
2022-09-28T04:55:52.753Z,12.24
2022-09-28T04:56:52.690Z,12.28
2022-09-28T04:57:52.707Z,12.28
2022-09-28T04:58:53.048Z,12.31
2022-09-28T04:59:52.697Z,12.29
2022-09-28T05:00:52.810Z,12.31
2022-09-28T05:01:52.655Z,12.28
2022-09-28T05:02:52.621Z,12.27
2022-09-28T05:03:52.620Z,12.25
2022-09-28T05:04:52.627Z,12.25
2022-09-28T05:05:52.604Z,12.24
2022-09-28T05:06:52.662Z,12.25
2022-09-28T05:07:52.573Z,12.28
2022-09-28T05:08:52.560Z,12.25
2022-09-28T05:09:52.547Z,12.27
2022-09-28T05:10:52.530Z,12.29
2022-09-28T05:11:52.606Z,12.29
2022-09-28T05:12:52.526Z,12.29
2022-09-28T05:13:52.505Z,12.25
2022-09-28T05:14:52.511Z,12.24
2022-09-28T05:15:56.981Z,12.29
2022-09-28T05:16:53.577Z,12.25
2022-09-28T05:17:52.449Z,12.28
2022-09-28T05:18:52.567Z,12.31
2022-09-28T05:19:52.438Z,12.18
2022-09-28T05:20:52.419Z,12.20
2022-09-28T05:21:52.430Z,12.22
2022-09-28T05:22:52.427Z,12.27
2022-09-28T05:23:52.387Z,12.15
2022-09-28T05:24:52.376Z,12.15
2022-09-28T05:25:52.388Z,12.18
2022-09-28T05:26:52.375Z,12.21
2022-09-28T05:27:52.369Z,12.18
2022-09-28T05:28:52.355Z,12.15
2022-09-28T05:29:52.318Z,12.04
2022-09-28T05:30:52.390Z,12.07
2022-09-28T05:31:52.321Z,12.18
2022-09-28T05:32:52.288Z,12.02
2022-09-28T05:33:52.278Z,12.07
2022-09-28T05:34:52.297Z,12.04
2022-09-28T05:35:55.116Z,12.10
2022-09-28T05:36:52.237Z,12.09
2022-09-28T05:37:52.236Z,12.03
2022-09-28T05:38:52.244Z,12.09
2022-09-28T05:39:52.207Z,12.04
2022-09-28T05:40:52.308Z,12.06
2022-09-28T05:41:52.184Z,12.09
2022-09-28T05:42:52.260Z,12.07
2022-09-28T05:43:52.181Z,12.18
2022-09-28T05:44:52.158Z,12.18
2022-09-28T05:45:55.612Z,12.17
2022-09-28T05:46:52.163Z,12.13
2022-09-28T05:47:52.228Z,12.18
2022-09-28T05:48:52.103Z,12.27
2022-09-28T05:49:52.098Z,12.21
2022-09-28T05:50:52.089Z,12.28
2022-09-28T05:51:52.073Z,12.40
2022-09-28T05:52:52.173Z,12.42
2022-09-28T05:53:52.051Z,12.46
2022-09-28T05:54:52.061Z,12.62
2022-09-28T05:55:52.024Z,12.61
2022-09-28T05:56:52.025Z,12.73
2022-09-28T05:57:52.001Z,12.75
2022-09-28T05:58:52.058Z,12.76
2022-09-28T05:59:52.013Z,12.80
2022-09-28T06:00:52.022Z,12.91
2022-09-28T06:01:51.961Z,12.97
2022-09-28T06:02:51.989Z,13.05
2022-09-28T06:03:51.939Z,13.04
2022-09-28T06:04:51.952Z,13.16
2022-09-28T06:05:52.002Z,13.18
2022-09-28T06:06:51.905Z,13.27
2022-09-28T06:07:51.899Z,13.30
2022-09-28T06:08:51.878Z,13.27
2022-09-28T06:09:51.925Z,13.39
2022-09-28T06:10:51.907Z,13.47
2022-09-28T06:11:51.847Z,13.50
2022-09-28T06:12:51.844Z,13.59
2022-09-28T06:13:51.821Z,13.59
2022-09-28T06:14:51.814Z,13.60
2022-09-28T06:15:51.853Z,13.67
2022-09-28T06:16:51.991Z,13.78
2022-09-28T06:17:51.781Z,13.83
2022-09-28T06:18:51.784Z,13.70
2022-09-28T06:19:51.759Z,13.95
2022-09-28T06:20:51.745Z,13.90
2022-09-28T06:21:51.759Z,14.04
2022-09-28T06:22:51.775Z,14.07
2022-09-28T06:23:51.717Z,14.25
2022-09-28T06:24:51.874Z,14.32
2022-09-28T06:29:08.101Z,14.44
2022-09-28T06:30:08.043Z,14.54
2022-09-28T06:31:08.193Z,14.45
2022-09-28T06:32:08.038Z,14.59
2022-09-28T06:33:08.024Z,14.68
2022-09-28T06:34:08.029Z,14.63
2022-09-28T06:35:08.070Z,14.73
2022-09-28T06:36:07.978Z,14.78
2022-09-28T06:37:07.971Z,14.85
2022-09-28T06:38:07.954Z,15.02
2022-09-28T06:39:07.939Z,15.02
2022-09-28T06:40:07.939Z,15.03
2022-09-28T06:41:07.934Z,15.11
2022-09-28T06:42:07.966Z,15.19
2022-09-28T06:43:07.892Z,15.09
2022-09-28T06:44:07.918Z,15.11
2022-09-28T06:45:07.878Z,15.06
2022-09-28T06:46:07.945Z,15.06
2022-09-28T06:47:07.894Z,15.09
2022-09-28T06:48:07.838Z,15.03
2022-09-28T06:49:07.826Z,15.06
2022-09-28T06:50:07.820Z,14.97
2022-09-28T06:51:07.805Z,14.88
2022-09-28T06:52:07.821Z,14.82
2022-09-28T06:53:07.844Z,14.89
2022-09-28T06:54:07.771Z,14.91
2022-09-28T06:55:07.771Z,14.92
2022-09-28T06:56:07.763Z,14.99
2022-09-28T06:57:07.751Z,15.04
2022-09-28T06:58:07.831Z,15.04
2022-09-28T06:59:07.788Z,15.09
2022-09-28T07:00:07.708Z,15.19
2022-09-28T07:01:07.826Z,15.25
2022-09-28T07:02:07.821Z,15.27
2022-09-28T07:03:07.784Z,15.36
2022-09-28T07:04:07.706Z,15.29
2022-09-28T07:05:07.664Z,15.46
2022-09-28T07:06:07.699Z,15.43
2022-09-28T07:07:07.624Z,15.52
2022-09-28T07:08:07.615Z,15.58
2022-09-28T07:09:23.818Z,15.65
2022-09-28T07:10:08.610Z,15.67
2022-09-28T07:11:07.580Z,15.76
2022-09-28T07:12:07.585Z,15.77
2022-09-28T07:13:12.646Z,15.88
2022-09-28T07:14:10.037Z,15.98
2022-09-28T07:15:07.551Z,15.97
2022-09-28T07:16:07.816Z,15.92
2022-09-28T07:17:13.695Z,16.08
2022-09-28T07:23:53.634Z,16.05
2022-09-28T07:24:48.946Z,16.00
2022-09-28T07:25:48.157Z,15.94
2022-09-28T07:26:48.807Z,15.95
2022-09-28T07:27:47.899Z,16.02
2022-09-28T07:28:47.913Z,16.16
2022-09-28T07:33:36.020Z,16.36
2022-09-28T07:45:05.999Z,16.01
2022-09-28T07:46:06.000Z,15.95
2022-09-28T07:47:05.927Z,15.90
2022-09-28T07:48:05.982Z,16.09
2022-09-28T07:49:08.493Z,16.04
2022-09-28T07:50:06.945Z,16.15
2022-09-28T07:59:31.400Z,16.09
2022-09-28T08:00:34.157Z,16.08
2022-09-28T08:01:31.204Z,16.09
2022-09-28T08:02:31.187Z,16.17
2022-09-28T08:03:31.118Z,16.17
2022-09-28T08:04:31.114Z,16.35
2022-09-28T08:05:31.137Z,16.42
2022-09-28T08:06:31.089Z,16.54
2022-09-28T08:07:31.070Z,16.61
2022-09-28T08:08:31.083Z,16.57
2022-09-28T08:09:31.077Z,16.71
2022-09-28T08:10:31.064Z,16.81
2022-09-28T08:11:31.039Z,16.90
2022-09-28T08:12:31.030Z,17.02
2022-09-28T08:13:31.001Z,17.04
2022-09-28T08:14:30.996Z,17.14
2022-09-28T08:15:30.984Z,17.19
2022-09-28T08:16:31.174Z,17.24
2022-09-28T08:17:30.979Z,17.29
2022-09-28T08:18:30.950Z,17.27
2022-09-28T08:19:30.980Z,17.39
2022-09-28T08:20:30.920Z,17.48
2022-09-28T08:21:31.497Z,17.41
2022-09-28T08:22:30.926Z,17.57
2022-09-28T08:23:30.949Z,17.72
2022-09-28T08:24:30.905Z,17.80
2022-09-28T08:25:30.877Z,17.87
2022-09-28T08:26:30.883Z,17.87
2022-09-28T08:27:30.842Z,17.89
2022-09-28T08:28:30.843Z,18.01
2022-09-28T08:29:30.890Z,18.03
2022-09-28T08:30:30.916Z,18.15
2022-09-28T08:31:30.805Z,18.29
2022-09-28T08:32:30.855Z,18.28
2022-09-28T08:33:30.783Z,18.28
2022-09-28T08:34:30.768Z,18.22
2022-09-28T08:35:30.814Z,18.22
2022-09-28T08:36:33.409Z,18.18
2022-09-28T08:37:30.741Z,18.18
2022-09-28T08:38:30.731Z,18.20
2022-09-28T08:39:30.926Z,18.20
2022-09-28T08:40:30.743Z,18.28
2022-09-28T08:41:30.831Z,18.28
2022-09-28T08:43:49.823Z,18.37
2022-09-28T08:44:49.929Z,18.35
2022-09-28T08:45:49.830Z,18.41
2022-09-28T08:46:49.923Z,18.34
2022-09-28T08:47:49.795Z,18.33
2022-09-28T08:49:06.872Z,18.37
2022-09-28T08:49:50.985Z,18.37
2022-09-28T08:50:49.736Z,18.40
2022-09-28T08:51:49.722Z,18.35
2022-09-28T08:52:49.918Z,18.37
2022-09-28T08:53:49.782Z,18.44
2022-09-28T08:54:49.688Z,18.41
2022-09-28T08:55:49.695Z,18.49
2022-09-28T08:56:49.670Z,18.62
2022-09-28T08:57:49.677Z,18.62
2022-09-28T08:58:49.681Z,18.74
2022-09-28T08:59:49.720Z,18.70
2022-09-28T09:00:49.717Z,18.70
2022-09-28T09:01:49.624Z,18.78
2022-09-28T09:02:49.739Z,18.73
2022-09-28T09:03:49.758Z,18.78
2022-09-28T09:04:49.637Z,18.84
2022-09-28T09:05:49.564Z,18.92
2022-09-28T09:06:49.551Z,18.86
2022-09-28T09:07:49.545Z,18.89
2022-09-28T09:08:49.567Z,18.89
2022-09-28T09:09:49.526Z,18.84
2022-09-28T09:10:49.606Z,18.81
2022-09-28T09:11:49.502Z,18.83
2022-09-28T09:12:49.572Z,18.88
2022-09-28T09:13:49.474Z,18.89
2022-09-28T09:14:49.464Z,18.86
2022-09-28T09:15:49.478Z,18.84
2022-09-28T09:16:49.559Z,18.81
2022-09-28T09:17:49.428Z,18.92
2022-09-28T09:18:49.424Z,18.92
2022-09-28T09:19:49.439Z,19.04
2022-09-28T09:20:49.392Z,19.02
2022-09-28T09:21:49.387Z,19.12
2022-09-28T09:22:49.391Z,19.19
2022-09-28T09:23:49.389Z,19.31
2022-09-28T09:24:49.371Z,19.34
2022-09-28T09:25:49.338Z,19.30
2022-09-28T09:26:49.331Z,19.37
2022-09-28T09:27:49.320Z,19.34
2022-09-28T09:28:49.335Z,19.36
2022-09-28T09:29:49.300Z,19.36
2022-09-28T09:30:49.338Z,19.34
2022-09-28T09:31:49.276Z,19.36
2022-09-28T09:32:49.263Z,19.39
2022-09-28T09:33:49.258Z,19.45
2022-09-28T09:34:49.300Z,19.64
2022-09-28T09:35:49.298Z,19.73
2022-09-28T09:36:49.373Z,19.76
2022-09-28T09:37:49.455Z,19.85
2022-09-28T09:38:49.336Z,19.88
2022-09-28T09:39:49.252Z,19.95
2022-09-28T09:40:49.355Z,19.88
2022-09-28T09:41:49.189Z,19.99
2022-09-28T09:42:49.181Z,20.00
2022-09-28T09:43:49.291Z,19.96
2022-09-28T09:44:49.190Z,20.02
2022-09-28T09:45:49.360Z,20.02
2022-09-28T09:46:49.176Z,20.09
2022-09-28T09:47:49.529Z,20.10
2022-09-28T09:48:49.087Z,20.16
2022-09-28T09:49:49.073Z,20.16
2022-09-28T09:50:49.086Z,20.18
2022-09-28T09:51:49.075Z,20.24
2022-09-28T09:52:49.077Z,20.24
2022-09-28T09:53:49.027Z,20.34
2022-09-28T09:54:49.015Z,20.34
2022-09-28T09:55:49.017Z,20.48
2022-09-28T09:56:48.993Z,20.52
2022-09-28T09:57:48.988Z,20.47
2022-09-28T09:58:49.288Z,20.40
2022-09-28T09:59:48.958Z,20.50
2022-09-28T10:00:48.953Z,20.48
2022-09-28T10:01:48.998Z,20.47
2022-09-28T10:02:49.078Z,20.41
2022-09-28T10:08:21.140Z,20.19
2022-09-28T10:09:21.117Z,20.07
2022-09-28T10:12:09.421Z,20.02
2022-09-28T10:15:47.712Z,20.00
2022-09-28T10:16:48.388Z,19.91
2022-09-28T10:17:47.658Z,19.89
2022-09-28T10:20:35.911Z,19.96
2022-09-28T10:25:04.771Z,19.92
2022-09-28T10:29:31.327Z,19.94
2022-09-28T10:31:54.878Z,19.92
2022-09-28T10:32:54.820Z,19.85
2022-09-28T10:33:54.798Z,19.88
2022-09-28T10:34:54.836Z,19.99
2022-09-28T10:35:54.778Z,20.11
2022-09-28T10:36:54.789Z,20.14
2022-09-28T10:37:54.772Z,20.11
2022-09-28T10:38:54.785Z,20.25
2022-09-28T10:39:54.746Z,20.40
2022-09-28T10:40:54.826Z,20.47
2022-09-28T10:45:36.307Z,20.51
2022-09-28T10:46:36.156Z,20.44
2022-09-28T10:47:43.494Z,20.43
2022-09-28T10:48:35.929Z,20.36
2022-09-28T10:49:35.908Z,20.41
2022-09-28T10:53:30.092Z,20.31
2022-09-28T10:57:13.497Z,20.19
2022-09-28T10:58:11.742Z,20.28
2022-09-28T10:59:11.816Z,20.36
2022-09-28T11:00:11.737Z,20.41
2022-09-28T11:01:11.780Z,20.55
2022-09-28T11:02:11.838Z,20.56
2022-09-28T11:03:11.683Z,20.70
2022-09-28T11:04:11.743Z,20.69
2022-09-28T11:08:10.518Z,20.67
2022-09-28T11:11:33.787Z,20.59
2022-09-28T11:12:33.875Z,20.50
2022-09-28T11:14:49.206Z,20.47
2022-09-28T11:15:48.995Z,20.50
2022-09-28T11:16:49.028Z,20.51
2022-09-28T11:17:48.964Z,20.48
2022-09-28T11:18:48.948Z,20.52
2022-09-28T11:19:49.010Z,20.60
2022-09-28T11:22:17.012Z,20.59
2022-09-28T11:23:16.970Z,20.59
2022-09-28T11:24:19.262Z,20.59
2022-09-28T11:25:17.296Z,20.56
2022-09-28T11:27:54.297Z,20.56
2022-09-28T11:28:53.982Z,20.56
2022-09-28T11:29:54.018Z,20.48
2022-09-28T11:30:54.079Z,20.48
2022-09-28T11:31:53.947Z,20.47
2022-09-28T11:32:53.934Z,20.50
2022-09-28T11:33:53.958Z,20.56
2022-09-28T11:34:59.712Z,20.56
2022-09-28T11:35:54.896Z,20.63
2022-09-28T11:36:55.683Z,20.60
2022-09-28T11:37:53.869Z,20.66
2022-09-28T11:38:53.860Z,20.70
2022-09-28T11:39:53.873Z,20.65
2022-09-28T11:40:53.897Z,20.77
2022-09-28T11:41:53.827Z,20.74
2022-09-28T11:42:53.841Z,20.75
2022-09-28T11:43:53.883Z,20.88
2022-09-28T11:44:53.791Z,20.84
2022-09-28T11:45:53.943Z,20.92
2022-09-28T11:46:53.767Z,20.82
2022-09-28T11:47:53.782Z,20.85
2022-09-28T11:48:53.752Z,20.93
2022-09-28T11:49:53.738Z,20.96
2022-09-28T11:50:53.729Z,20.93
2022-09-28T11:51:53.809Z,20.95
2022-09-28T11:52:53.705Z,20.97
2022-09-28T11:53:53.692Z,20.96
2022-09-28T11:54:53.714Z,21.05
2022-09-28T11:55:54.449Z,21.06
2022-09-28T11:56:53.668Z,21.20
2022-09-28T11:57:53.683Z,21.20
2022-09-28T11:58:53.633Z,21.20
2022-09-28T11:59:53.653Z,21.18
2022-09-28T12:00:53.613Z,21.24
2022-09-28T12:01:53.620Z,21.24
2022-09-28T12:02:53.730Z,21.24
2022-09-28T12:03:53.616Z,21.25
2022-09-28T12:04:53.577Z,21.20
2022-09-28T12:05:53.557Z,21.17
2022-09-28T12:06:53.553Z,21.06
2022-09-28T12:07:53.551Z,21.09
2022-09-28T12:08:53.537Z,21.07
2022-09-28T12:09:53.538Z,21.09
2022-09-28T12:10:54.420Z,21.15
2022-09-28T12:11:53.497Z,21.15
2022-09-28T12:12:53.489Z,21.24
2022-09-28T12:13:53.513Z,21.30
2022-09-28T12:14:53.470Z,21.29
2022-09-28T12:16:22.560Z,21.29
2022-09-28T12:17:05.907Z,21.32
2022-09-28T12:17:54.531Z,21.30
2022-09-28T12:18:53.501Z,21.35
2022-09-28T12:19:53.405Z,21.32
2022-09-28T12:20:53.401Z,21.32
2022-09-28T12:21:53.399Z,21.36
2022-09-28T12:22:53.370Z,21.35
2022-09-28T12:23:53.362Z,21.32
2022-09-28T12:24:53.345Z,21.32
2022-09-28T12:25:53.340Z,21.35
2022-09-28T12:26:53.325Z,21.39
2022-09-28T12:27:53.330Z,21.35
2022-09-28T12:28:53.316Z,21.32
2022-09-28T12:29:53.322Z,21.29
2022-09-28T12:30:53.334Z,21.22
2022-09-28T12:31:53.292Z,21.20
2022-09-28T12:32:53.254Z,21.15
2022-09-28T12:33:53.285Z,21.24
2022-09-28T12:34:53.235Z,21.33
2022-09-28T12:35:53.227Z,21.36
2022-09-28T12:36:53.213Z,21.29
2022-09-28T12:37:54.537Z,21.32
2022-09-28T12:39:14.639Z,21.29
2022-09-28T12:39:58.111Z,21.39
2022-09-28T12:40:53.237Z,21.39
2022-09-28T12:41:53.189Z,21.43
2022-09-28T12:42:53.148Z,21.46
2022-09-28T12:43:53.144Z,21.58
2022-09-28T12:44:58.563Z,21.52
2022-09-28T12:46:11.115Z,21.42
2022-09-28T12:46:54.197Z,21.46
2022-09-28T12:47:53.118Z,21.42
2022-09-28T12:49:24.134Z,21.30
2022-09-28T12:50:37.049Z,21.22
2022-09-28T12:50:57.436Z,21.12
2022-09-28T12:51:53.067Z,21.07
2022-09-28T12:52:53.060Z,20.97
2022-09-28T12:53:53.035Z,20.93
2022-09-28T12:54:53.024Z,21.00
2022-09-28T12:55:53.003Z,20.96
2022-09-28T12:56:53.006Z,20.96
2022-09-28T12:57:52.999Z,20.87
2022-09-28T12:58:52.994Z,20.93
2022-09-28T12:59:52.999Z,20.95
2022-09-28T13:00:52.947Z,20.97
2022-09-28T13:01:53.018Z,20.97
2022-09-28T13:02:53.085Z,21.06
2022-09-28T13:03:52.965Z,21.09
2022-09-28T13:04:52.905Z,21.15
2022-09-28T13:05:52.922Z,20.99
2022-09-28T13:06:52.881Z,21.07
2022-09-28T13:07:52.870Z,21.07
2022-09-28T13:08:52.914Z,21.11
2022-09-28T13:10:00.196Z,21.09
2022-09-28T13:10:52.850Z,21.12
2022-09-28T13:11:52.887Z,21.06
2022-09-28T13:12:52.820Z,21.07
2022-09-28T13:13:52.801Z,21.11
2022-09-28T13:14:52.817Z,21.14
2022-09-28T13:15:52.942Z,21.18
2022-09-28T13:16:55.210Z,21.15
2022-09-28T13:17:53.768Z,21.22
2022-09-28T13:18:52.747Z,21.21
2022-09-28T13:19:52.762Z,21.22
2022-09-28T13:20:52.733Z,21.22
2022-09-28T13:21:52.730Z,21.20
2022-09-28T13:22:52.703Z,21.27
2022-09-28T13:23:57.911Z,21.20
2022-09-28T13:24:53.699Z,21.21
2022-09-28T13:25:52.692Z,21.11
2022-09-28T13:26:52.656Z,21.17
2022-09-28T13:27:52.809Z,21.12
2022-09-28T13:28:52.666Z,21.12
2022-09-28T13:29:52.628Z,21.17
2022-09-28T13:30:52.735Z,21.07
2022-09-28T13:31:52.599Z,21.09
2022-09-28T13:32:52.604Z,21.07
2022-09-28T13:33:52.593Z,21.05
2022-09-28T13:34:52.576Z,20.97
2022-09-28T13:35:52.588Z,20.97
2022-09-28T13:36:52.546Z,20.96
2022-09-28T13:37:52.538Z,21.03
2022-09-28T13:38:52.518Z,20.99
2022-09-28T13:39:52.525Z,20.96
2022-09-28T13:40:52.537Z,20.92
2022-09-28T13:41:52.493Z,20.97
2022-09-28T13:42:52.479Z,20.90
2022-09-28T13:43:52.467Z,20.97
2022-09-28T13:44:52.459Z,21.02
2022-09-28T13:45:52.499Z,21.05
2022-09-28T13:46:52.439Z,21.18
2022-09-28T13:47:52.433Z,21.21
2022-09-28T13:48:52.415Z,21.32
2022-09-28T13:49:52.400Z,21.39
2022-09-28T13:50:52.384Z,21.37
2022-09-28T13:51:52.451Z,21.42
2022-09-28T13:52:52.367Z,21.43
2022-09-28T13:53:52.363Z,21.52
2022-09-28T13:54:52.349Z,21.48
2022-09-28T13:55:52.343Z,21.51
2022-09-28T13:56:52.322Z,21.54
2022-09-28T13:57:52.351Z,21.48
2022-09-28T13:58:52.300Z,21.45
2022-09-28T13:59:52.293Z,21.35
2022-09-28T14:00:52.284Z,21.39
2022-09-28T14:01:53.024Z,21.30
2022-09-28T14:02:52.345Z,21.33
2022-09-28T14:03:52.331Z,21.30
2022-09-28T14:04:52.242Z,21.24